createdAt,value
2019-01-14T00:01:22.635Z,98226.56
2019-01-14T00:04:12.106Z,98232.48
2019-01-14T00:07:02.196Z,98234.63
2019-01-14T00:09:51.318Z,98224.13
2019-01-14T00:12:40.652Z,98235.93
2019-01-14T00:15:31.031Z,98242.42
2019-01-14T00:18:20.498Z,98262.30
2019-01-14T00:21:09.998Z,98301.52
2019-01-14T00:23:59.880Z,98305.75
2019-01-14T00:26:49.774Z,98317.77
2019-01-14T00:29:39.770Z,98319.17
2019-01-14T00:32:29.337Z,98314.97
2019-01-14T00:35:19.089Z,98322.34
2019-01-14T00:38:09.047Z,98327.41
2019-01-14T00:40:59.332Z,98324.36
2019-01-14T00:43:49.122Z,98319.67
2019-01-14T00:46:39.295Z,98323.66
2019-01-14T00:49:28.827Z,98335.16
2019-01-14T00:52:19.106Z,98320.28
2019-01-14T00:55:10.450Z,98341.96
2019-01-14T00:58:00.312Z,98344.02
2019-01-14T01:00:50.362Z,98349.06
2019-01-14T01:03:42.729Z,98359.16
2019-01-14T01:06:32.210Z,98360.98
2019-01-14T01:09:22.191Z,98371.38
2019-01-14T01:12:12.528Z,98371.56
2019-01-14T01:15:02.089Z,98382.02
2019-01-14T01:17:52.261Z,98390.25
2019-01-14T01:20:42.053Z,98402.53
2019-01-14T01:23:31.859Z,98406.33
2019-01-14T01:26:21.894Z,98417.80
2019-01-14T01:29:12.069Z,98417.27
2019-01-14T01:32:02.240Z,98437.67
2019-01-14T01:34:52.265Z,98437.72
2019-01-14T01:37:42.130Z,98450.73
2019-01-14T01:40:32.144Z,98461.41
2019-01-14T01:43:21.989Z,98478.92
2019-01-14T01:46:12.169Z,98469.80
2019-01-14T01:49:02.284Z,98479.44
2019-01-14T01:51:51.734Z,98477.02
2019-01-14T01:54:42.744Z,98487.26
2019-01-14T01:57:32.818Z,98500.22
2019-01-14T02:00:23.906Z,98501.35
2019-01-14T02:03:14.198Z,98509.95
2019-01-14T02:06:03.821Z,98511.04
2019-01-14T02:08:54.483Z,98524.48
2019-01-14T02:11:44.366Z,98520.16
2019-01-14T02:14:34.497Z,98535.55
2019-01-14T02:17:24.648Z,98528.85
2019-01-14T02:20:16.806Z,98540.52
2019-01-14T02:23:06.875Z,98538.05
2019-01-14T02:25:56.539Z,98545.62
2019-01-14T02:28:46.838Z,98558.92
2019-01-14T02:31:36.901Z,98565.27
2019-01-14T02:34:26.044Z,98563.06
2019-01-14T02:37:15.463Z,98561.63
2019-01-14T02:40:07.635Z,98575.95
2019-01-14T02:42:57.634Z,98582.49
2019-01-14T02:45:48.780Z,98593.11
2019-01-14T02:48:38.564Z,98602.58
2019-01-14T02:51:28.488Z,98599.28
2019-01-14T02:54:18.216Z,98607.89
2019-01-14T02:57:07.837Z,98613.48
2019-01-14T02:59:57.864Z,98623.84
2019-01-14T03:02:47.784Z,98619.63
2019-01-14T03:05:37.619Z,98630.42
2019-01-14T03:08:27.824Z,98631.98
2019-01-14T03:11:17.988Z,98640.45
2019-01-14T03:14:07.610Z,98643.70
2019-01-14T03:16:57.855Z,98642.37
2019-01-14T03:19:48.117Z,98645.37
2019-01-14T03:22:38.512Z,98665.32
2019-01-14T03:25:28.658Z,98659.20
2019-01-14T03:28:18.700Z,98674.75
2019-01-14T03:31:08.627Z,98668.00
2019-01-14T03:33:58.156Z,98689.58
2019-01-14T03:36:48.220Z,98692.17
2019-01-14T03:39:38.345Z,98698.05
2019-01-14T03:42:28.368Z,98714.50
2019-01-14T03:45:18.221Z,98747.70
2019-01-14T03:48:08.279Z,98748.85
2019-01-14T03:50:58.362Z,98754.39
2019-01-14T03:53:48.245Z,98765.62
2019-01-14T03:56:38.237Z,98761.84
2019-01-14T03:59:28.092Z,98782.26
2019-01-14T04:02:18.021Z,98793.91
2019-01-14T04:05:09.718Z,98811.41
2019-01-14T04:07:59.507Z,98805.60
2019-01-14T04:10:49.139Z,98819.63
2019-01-14T04:13:38.946Z,98813.80
2019-01-14T04:16:29.003Z,98842.43
2019-01-14T04:19:18.691Z,98856.30
2019-01-14T04:22:08.981Z,98854.52
2019-01-14T04:24:59.164Z,98857.09
2019-01-14T04:27:49.052Z,98874.42
2019-01-14T04:30:39.094Z,98867.56
2019-01-14T04:33:29.410Z,98871.27
2019-01-14T04:36:19.099Z,98888.91
2019-01-14T04:39:11.034Z,98901.13
2019-01-14T04:42:00.885Z,98916.39
2019-01-14T04:44:51.687Z,98915.36
2019-01-14T04:47:41.761Z,98920.72
2019-01-14T04:50:31.322Z,98933.06
2019-01-14T04:53:21.554Z,98951.14
2019-01-14T04:56:11.333Z,98948.83
2019-01-14T04:59:01.355Z,98955.42
2019-01-14T05:01:51.169Z,98960.43
2019-01-14T05:04:41.209Z,98968.73
2019-01-14T05:07:30.766Z,98970.38
2019-01-14T05:10:21.037Z,98973.30
2019-01-14T05:13:11.098Z,98996.84
2019-01-14T05:16:01.184Z,98994.76
2019-01-14T05:18:51.309Z,99003.76
2019-01-14T05:21:41.702Z,99006.80
2019-01-14T05:24:31.643Z,99011.71
2019-01-14T05:27:21.265Z,99018.13
2019-01-14T05:30:12.792Z,99020.05
2019-01-14T05:33:03.118Z,99020.64
2019-01-14T05:35:53.307Z,99022.27
2019-01-14T05:38:43.354Z,99019.00
2019-01-14T05:41:33.198Z,99022.73
2019-01-14T05:44:23.102Z,99017.23
2019-01-14T05:47:13.142Z,99023.60
2019-01-14T05:50:03.169Z,99026.75
2019-01-14T05:52:53.210Z,99030.02
2019-01-14T05:55:42.852Z,99023.84
2019-01-14T05:58:32.964Z,99026.00
2019-01-14T06:01:22.802Z,99031.78
2019-01-14T06:04:12.582Z,99025.09
2019-01-14T06:07:02.420Z,99028.88
2019-01-14T06:09:52.574Z,99021.83
2019-01-14T06:12:42.750Z,99024.86
2019-01-14T06:15:32.593Z,99034.10
2019-01-14T06:18:22.617Z,99017.98
2019-01-14T06:21:12.397Z,99027.34
2019-01-14T06:24:02.502Z,99024.66
2019-01-14T06:26:52.358Z,99040.99
2019-01-14T06:29:42.098Z,99030.80
2019-01-14T06:32:33.203Z,99027.46
2019-01-14T06:35:24.102Z,99026.20
2019-01-14T06:38:14.156Z,99034.30
2019-01-14T06:41:06.894Z,99044.13
2019-01-14T06:43:56.673Z,99061.88
2019-01-14T06:46:46.193Z,99061.52
2019-01-14T06:49:36.154Z,99060.94
2019-01-14T06:52:25.961Z,99080.45
2019-01-14T06:55:16.652Z,99078.25
2019-01-14T06:58:07.801Z,99075.80
2019-01-14T07:00:58.138Z,99079.69
2019-01-14T07:03:48.204Z,99093.08
2019-01-14T07:06:37.950Z,99087.80
2019-01-14T07:09:27.686Z,99096.02
2019-01-14T07:12:17.224Z,99101.53
2019-01-14T07:15:08.108Z,99100.34
2019-01-14T07:17:58.002Z,99110.38
2019-01-14T07:20:47.793Z,99126.38
2019-01-14T07:23:37.585Z,99137.66
2019-01-14T07:26:27.430Z,99160.27
2019-01-14T07:29:17.743Z,99159.69
2019-01-14T07:32:07.629Z,99167.20
2019-01-14T07:34:57.777Z,99180.59
2019-01-14T07:37:48.532Z,99181.11
2019-01-14T07:40:38.025Z,99188.55
2019-01-14T07:43:27.985Z,99193.91
2019-01-14T07:46:17.344Z,99189.06
2019-01-14T07:49:06.830Z,99202.92
2019-01-14T07:51:56.801Z,99214.66
2019-01-14T07:54:46.932Z,99210.36
2019-01-14T07:57:37.266Z,99211.62
2019-01-14T08:00:28.110Z,99219.50
2019-01-14T08:03:19.260Z,99228.44
2019-01-14T08:06:08.769Z,99229.63
2019-01-14T08:08:58.824Z,99235.94
2019-01-14T08:11:48.819Z,99234.47
2019-01-14T08:14:38.959Z,99250.82
2019-01-14T08:17:28.595Z,99239.28
2019-01-14T08:20:18.591Z,99233.25
2019-01-14T08:23:08.912Z,99244.19
2019-01-14T08:25:58.694Z,99246.95
2019-01-14T08:28:48.147Z,99236.45
2019-01-14T08:31:38.378Z,99247.27
2019-01-14T08:34:28.127Z,99255.02
2019-01-14T08:37:17.926Z,99261.89
2019-01-14T08:40:09.698Z,99260.98
2019-01-14T08:43:00.868Z,99274.05
2019-01-14T08:45:50.938Z,99279.14
2019-01-14T08:48:48.665Z,99293.49
2019-01-14T08:51:33.032Z,99293.73
2019-01-14T08:54:22.815Z,99300.83
2019-01-14T08:57:12.749Z,99300.44
2019-01-14T09:00:03.521Z,99299.82
2019-01-14T09:02:54.618Z,99298.50
2019-01-14T09:05:44.515Z,99299.03
2019-01-14T09:08:34.480Z,99307.89
2019-01-14T09:11:23.618Z,99298.52
2019-01-14T09:14:13.277Z,99309.59
2019-01-14T09:17:06.567Z,99313.59
2019-01-14T09:19:56.392Z,99326.88
2019-01-14T09:22:46.758Z,99332.69
2019-01-14T09:25:36.968Z,99333.52
2019-01-14T09:28:27.035Z,99334.39
2019-01-14T09:31:16.935Z,99342.39
2019-01-14T09:34:07.748Z,99339.92
2019-01-14T09:36:57.918Z,99340.59
2019-01-14T09:39:48.001Z,99339.80
2019-01-14T09:42:38.095Z,99335.54
2019-01-14T09:45:27.873Z,99344.17
2019-01-14T09:48:17.660Z,99339.17
2019-01-14T09:51:07.485Z,99340.38
2019-01-14T09:53:57.577Z,99347.67
2019-01-14T09:56:47.887Z,99337.81
2019-01-14T09:59:37.873Z,99340.03
2019-01-14T10:02:27.737Z,99346.79
2019-01-14T10:05:20.138Z,99348.38
2019-01-14T10:08:10.888Z,99361.14
2019-01-14T10:11:00.836Z,99368.20
2019-01-14T10:13:51.080Z,99364.22
2019-01-14T10:16:42.387Z,99356.44
2019-01-14T10:19:32.385Z,99353.30
2019-01-14T10:22:22.223Z,99369.34
2019-01-14T10:25:12.791Z,99344.20
2019-01-14T10:28:02.973Z,99349.00
2019-01-14T10:30:53.536Z,99342.97
2019-01-14T10:33:43.617Z,99334.25
2019-01-14T10:36:33.667Z,99335.03
2019-01-14T10:39:23.662Z,99339.89
2019-01-14T10:42:13.596Z,99332.03
2019-01-14T10:45:03.774Z,99326.94
2019-01-14T10:47:53.541Z,99336.27
2019-01-14T10:50:43.630Z,99339.29
2019-01-14T10:53:33.437Z,99332.13
2019-01-14T10:56:23.392Z,99325.63
2019-01-14T10:59:13.317Z,99327.14
2019-01-14T11:02:04.313Z,99335.19
2019-01-14T11:04:54.761Z,99328.73
2019-01-14T11:07:44.641Z,99346.22
2019-01-14T11:10:34.290Z,99332.70
2019-01-14T11:13:24.253Z,99345.60
2019-01-14T11:16:14.400Z,99337.02
2019-01-14T11:19:04.763Z,99350.78
2019-01-14T11:21:54.921Z,99362.74
2019-01-14T11:24:51.700Z,99355.89
2019-01-14T11:27:41.465Z,99359.40
2019-01-14T11:30:33.546Z,99367.37
2019-01-14T11:33:23.646Z,99355.06
2019-01-14T11:36:13.502Z,99355.50
2019-01-14T11:39:05.589Z,99346.79
2019-01-14T11:41:55.640Z,99364.53
2019-01-14T11:44:45.888Z,99361.26
2019-01-14T11:47:36.008Z,99355.06
2019-01-14T11:50:26.078Z,99361.99
2019-01-14T11:53:17.236Z,99356.16
2019-01-14T11:56:07.599Z,99360.66
2019-01-14T11:58:57.567Z,99364.67
2019-01-14T12:01:47.330Z,99376.56
2019-01-14T12:04:37.484Z,99371.20
2019-01-14T12:07:27.917Z,99377.91
2019-01-14T12:10:18.134Z,99373.53
2019-01-14T12:13:07.673Z,99369.92
2019-01-14T12:15:57.362Z,99383.05
2019-01-14T12:18:46.940Z,99389.95
2019-01-14T12:21:36.899Z,99398.68
2019-01-14T12:24:26.685Z,99386.12
2019-01-14T12:27:16.558Z,99391.85
2019-01-14T12:30:19.451Z,99381.20
2019-01-14T12:33:09.912Z,99376.52
2019-01-14T12:35:59.638Z,99371.74
2019-01-14T12:38:49.506Z,99382.54
2019-01-14T12:41:39.225Z,99376.08
2019-01-14T12:44:29.085Z,99364.45
2019-01-14T12:47:18.815Z,99426.33
2019-01-14T12:50:11.925Z,99439.56
2019-01-14T12:53:01.663Z,99434.91
2019-01-14T12:55:52.032Z,99432.09
2019-01-14T12:58:41.628Z,99435.00
2019-01-14T13:01:32.109Z,99441.39
2019-01-14T13:04:22.142Z,99437.84
2019-01-14T13:07:12.378Z,99435.73
2019-01-14T13:10:02.194Z,99449.20
2019-01-14T13:12:52.262Z,99445.60
2019-01-14T13:15:42.183Z,99450.42
2019-01-14T13:18:31.937Z,99450.02
2019-01-14T13:21:22.209Z,99435.69
2019-01-14T13:24:12.397Z,99428.85
2019-01-14T13:27:03.344Z,99421.50
2019-01-14T13:29:53.313Z,99428.63
2019-01-14T13:32:43.434Z,99429.42
2019-01-14T13:35:33.392Z,99431.36
2019-01-14T13:38:23.138Z,99435.38
2019-01-14T13:41:13.040Z,99437.31
2019-01-14T13:44:02.913Z,99437.44
2019-01-14T13:46:53.987Z,99460.19
2019-01-14T13:49:46.632Z,99463.80
2019-01-14T13:52:36.940Z,99469.02
2019-01-14T13:55:27.549Z,99494.69
2019-01-14T13:58:17.712Z,99487.39
2019-01-14T14:01:07.616Z,99493.19
2019-01-14T14:03:57.309Z,99505.55
2019-01-14T14:06:47.412Z,99502.95
2019-01-14T14:09:41.158Z,99517.12
2019-01-14T14:12:28.226Z,99516.52
2019-01-14T14:15:17.920Z,99543.36
2019-01-14T14:18:08.061Z,99579.13
2019-01-14T14:20:58.209Z,99589.81
2019-01-14T14:23:48.025Z,99606.78
2019-01-14T14:26:37.642Z,99617.35
2019-01-14T14:29:27.608Z,99633.47
2019-01-14T14:32:17.866Z,99626.67
2019-01-14T14:35:08.585Z,99601.43
2019-01-14T14:38:01.342Z,99599.59
2019-01-14T14:40:50.631Z,99608.75
2019-01-14T14:43:40.396Z,99617.73
2019-01-14T14:46:30.643Z,99631.09
2019-01-14T14:49:20.710Z,99630.43
2019-01-14T14:52:10.779Z,99627.31
2019-01-14T14:55:00.864Z,99627.75
2019-01-14T14:57:51.067Z,99638.58
2019-01-14T15:00:40.856Z,99636.75
2019-01-14T15:03:31.625Z,99644.16
2019-01-14T15:06:21.336Z,99650.63
2019-01-14T15:09:11.442Z,99653.55
2019-01-14T15:12:01.738Z,99655.12
2019-01-14T15:14:52.136Z,99642.50
2019-01-14T15:17:42.162Z,99643.77
2019-01-14T15:20:32.447Z,99658.34
2019-01-14T15:23:22.923Z,99659.80
2019-01-14T15:26:12.981Z,99681.25
2019-01-14T15:29:02.860Z,99676.83
2019-01-14T15:31:52.800Z,99685.12
2019-01-14T15:34:42.426Z,99694.91
2019-01-14T15:37:33.113Z,99696.25
2019-01-14T15:40:25.027Z,99702.50
2019-01-14T15:43:14.422Z,99707.84
2019-01-14T15:46:04.226Z,99712.30
2019-01-14T15:48:54.252Z,99714.75
2019-01-14T15:51:43.837Z,99720.42
2019-01-14T15:54:34.133Z,99731.09
2019-01-14T15:57:24.072Z,99732.59
2019-01-14T16:00:16.548Z,99745.92
2019-01-14T16:03:06.637Z,99749.66
2019-01-14T16:05:56.516Z,99757.36
2019-01-14T16:08:46.625Z,99765.16
2019-01-14T16:11:36.616Z,99773.80
2019-01-14T16:14:26.869Z,99780.23
2019-01-14T16:17:16.498Z,99793.56
2019-01-14T16:20:08.963Z,99799.46
2019-01-14T16:22:58.968Z,99808.59
2019-01-14T16:25:49.140Z,99819.76
2019-01-14T16:28:40.134Z,99819.95
2019-01-14T16:31:29.846Z,99824.59
2019-01-14T16:34:19.594Z,99826.92
2019-01-14T16:37:09.985Z,99844.95
2019-01-14T16:39:59.844Z,99849.78
2019-01-14T16:42:50.052Z,99850.65
2019-01-14T16:45:40.222Z,99857.15
2019-01-14T16:48:30.148Z,99859.68
2019-01-14T16:51:19.175Z,99861.64
2019-01-14T16:54:09.300Z,99859.68
2019-01-14T16:56:59.273Z,99862.55
2019-01-14T16:59:49.497Z,99864.74
2019-01-14T17:02:39.811Z,99867.34
2019-01-14T17:05:29.859Z,99878.20
2019-01-14T17:08:19.917Z,99883.03
2019-01-14T17:11:09.580Z,99884.37
2019-01-14T17:13:59.197Z,99895.53
2019-01-14T17:16:48.961Z,99897.70
2019-01-14T17:19:39.118Z,99900.09
2019-01-14T17:22:29.311Z,99903.59
2019-01-14T17:25:19.303Z,99907.09
2019-01-14T17:28:09.441Z,99910.39
2019-01-14T17:30:58.938Z,99915.45
2019-01-14T17:33:48.780Z,99924.14
2019-01-14T17:36:38.340Z,99933.47
2019-01-14T17:39:29.214Z,99936.77
2019-01-14T17:42:19.981Z,99937.83
2019-01-14T17:45:10.595Z,99948.06
2019-01-14T17:48:00.058Z,99953.13
2019-01-14T17:50:50.215Z,99952.95
2019-01-14T17:53:40.418Z,99957.12
2019-01-14T17:56:29.966Z,99962.53
2019-01-14T17:59:20.799Z,99961.73
2019-01-14T18:02:10.319Z,99973.89
2019-01-14T18:04:59.852Z,99989.88
2019-01-14T18:07:49.447Z,99987.72
2019-01-14T18:10:40.177Z,99986.72
2019-01-14T18:13:30.281Z,100003.05
2019-01-14T18:16:19.710Z,100006.35
2019-01-14T18:19:09.532Z,100005.33
2019-01-14T18:21:59.264Z,100007.30
2019-01-14T18:24:48.962Z,100011.98
2019-01-14T18:27:38.414Z,100006.60
2019-01-14T18:30:28.402Z,100016.91
2019-01-14T18:33:21.568Z,100021.45
2019-01-14T18:36:11.913Z,100018.58
2019-01-14T18:39:01.700Z,100031.57
2019-01-14T18:41:52.325Z,100035.91
2019-01-14T18:44:42.464Z,100036.69
2019-01-14T18:47:31.939Z,100041.88
2019-01-14T18:50:24.128Z,100048.55
2019-01-14T18:53:14.090Z,100049.82
2019-01-14T18:56:03.548Z,100049.77
2019-01-14T18:58:54.934Z,100062.80
2019-01-14T19:01:44.817Z,100058.80
2019-01-14T19:04:34.803Z,100067.44
2019-01-14T19:07:25.069Z,100075.73
2019-01-14T19:10:15.872Z,100068.83
2019-01-14T19:13:06.046Z,100074.45
2019-01-14T19:15:58.551Z,100082.95
2019-01-14T19:18:48.012Z,100089.77
2019-01-14T19:21:37.954Z,100078.74
2019-01-14T19:24:27.790Z,100082.41
2019-01-14T19:27:18.186Z,100091.24
2019-01-14T19:30:12.430Z,100088.08
2019-01-14T19:33:03.395Z,100093.77
2019-01-14T19:35:53.676Z,100091.24
2019-01-14T19:38:43.509Z,100091.48
2019-01-14T19:41:32.965Z,100098.70
2019-01-14T19:44:22.892Z,100098.16
2019-01-14T19:47:12.736Z,100110.16
2019-01-14T19:50:03.817Z,100106.86
2019-01-14T19:52:55.633Z,100109.03
2019-01-14T19:55:45.661Z,100111.50
2019-01-14T19:58:35.463Z,100113.62
2019-01-14T20:01:25.229Z,100117.41
2019-01-14T20:04:15.199Z,100120.27
2019-01-14T20:07:10.503Z,100124.77
2019-01-14T20:09:56.113Z,100119.65
2019-01-14T20:12:46.404Z,100126.84
2019-01-14T20:15:36.088Z,100133.77
2019-01-14T20:18:26.456Z,100129.77
2019-01-14T20:21:16.457Z,100142.10
2019-01-14T20:24:07.043Z,100127.79
2019-01-14T20:26:57.492Z,100143.34
2019-01-14T20:29:47.645Z,100139.48
2019-01-14T20:32:37.432Z,100146.41
2019-01-14T20:35:27.995Z,100150.25
2019-01-14T20:38:17.895Z,100149.22
2019-01-14T20:41:08.029Z,100162.34
2019-01-14T20:44:05.047Z,100162.48
2019-01-14T20:46:49.608Z,100167.18
2019-01-14T20:49:39.389Z,100172.96
2019-01-14T20:52:29.341Z,100175.33
2019-01-14T20:55:19.393Z,100174.16
2019-01-14T20:58:09.642Z,100167.98
2019-01-14T21:00:59.401Z,100176.18
2019-01-14T21:03:49.685Z,100172.32
2019-01-14T21:06:39.649Z,100159.03
2019-01-14T21:09:29.209Z,100168.23
2019-01-14T21:12:19.005Z,100166.75
2019-01-14T21:15:09.168Z,100166.06
2019-01-14T21:17:59.427Z,100180.38
2019-01-14T21:20:49.811Z,100186.01
2019-01-14T21:23:39.867Z,100184.38
2019-01-14T21:26:29.994Z,100194.06
2019-01-14T21:29:20.169Z,100191.09
2019-01-14T21:32:09.605Z,100183.24
2019-01-14T21:34:59.582Z,100192.27
2019-01-14T21:37:50.962Z,100187.09
2019-01-14T21:40:41.268Z,100182.75
2019-01-14T21:43:31.401Z,100189.37
2019-01-14T21:46:20.652Z,100191.33
2019-01-14T21:49:10.882Z,100187.57
2019-01-14T21:52:01.689Z,100188.71
2019-01-14T21:54:51.766Z,100187.83
2019-01-14T21:57:42.076Z,100193.05
2019-01-14T22:00:32.111Z,100185.66
2019-01-14T22:03:21.811Z,100185.41
2019-01-14T22:06:11.359Z,100185.22
2019-01-14T22:09:01.111Z,100188.66
2019-01-14T22:11:52.442Z,100192.31
2019-01-14T22:14:42.301Z,100187.70
2019-01-14T22:17:32.290Z,100184.86
2019-01-14T22:20:28.619Z,100185.25
2019-01-14T22:23:22.044Z,100175.80
2019-01-14T22:26:11.880Z,100179.27
2019-01-14T22:29:01.798Z,100177.23
2019-01-14T22:31:51.967Z,100180.19
2019-01-14T22:34:41.766Z,100186.13
2019-01-14T22:37:31.549Z,100193.81
2019-01-14T22:40:21.840Z,100192.81
2019-01-14T22:43:11.493Z,100194.92
2019-01-14T22:46:01.434Z,100192.89
2019-01-14T22:48:51.361Z,100197.67
2019-01-14T22:51:41.080Z,100190.30
2019-01-14T22:54:30.600Z,100189.23
2019-01-14T22:57:21.899Z,100199.22
2019-01-14T23:01:07.282Z,100197.55
2019-01-14T23:03:57.352Z,100192.06
2019-01-14T23:06:46.836Z,100198.58
2019-01-14T23:09:37.647Z,100202.89
2019-01-14T23:12:27.870Z,100206.20
2019-01-14T23:15:18.207Z,100203.52
2019-01-14T23:18:08.325Z,100207.03
2019-01-14T23:20:58.412Z,100203.80
2019-01-14T23:23:47.955Z,100201.96
2019-01-14T23:26:37.234Z,100204.22
2019-01-14T23:29:26.969Z,100211.81
2019-01-14T23:32:16.836Z,100212.08
2019-01-14T23:35:07.491Z,100211.75
2019-01-14T23:37:57.527Z,100214.69
2019-01-14T23:40:47.211Z,100221.77
2019-01-14T23:43:36.954Z,100216.42
2019-01-14T23:46:26.640Z,100225.45
2019-01-14T23:49:16.782Z,100216.53
2019-01-14T23:52:06.679Z,100216.92
2019-01-14T23:54:56.760Z,100224.61
2019-01-14T23:57:46.998Z,100219.73
